Time;durP1;ratioP1;P1;durP2;ratioP2;P2;SDS_P1;SDS_P2;PMS_P1;PMS_P2;Temp;Humidity;BMP_temperature;BMP_pressure;BME280_temperature;BME280_humidity;BME280_pressure;Samples;Min_cycle;Max_cycle;Signal;HPM_P1;HPM_P2
2021/08/26 00:00:06;;;;;;;7.60;5.30;;;;;;;15.31;80.39;100883.03;679392;29;1268;-82
2021/08/26 00:00:35;;;;;;;7.00;4.90;;;;;;;15.30;80.18;100877.81;677366;29;825;-81
2021/08/26 00:00:59;;;;;;;7.55;5.20;;;;;;;15.30;79.51;100883.94;678573;29;4514;-81
2021/08/26 00:06:00;;;;;;;8.50;5.60;;;;;;;15.47;79.61;100874.81;672296;29;2485;-82
2021/08/26 00:06:21;;;;;;;7.25;5.40;;;;;;;15.53;80.31;100887.81;673406;29;1648;-81
2021/08/26 00:06:41;;;;;;;6.97;5.32;;;;;;;15.42;80.45;100881.94;671845;29;1840;-81
2021/08/26 00:07:02;;;;;;;8.03;5.37;;;;;;;15.44;80.47;100883.63;672082;29;4430;-81
2021/08/26 00:07:23;;;;;;;7.72;5.32;;;;;;;15.44;78.97;100877.50;675193;29;1109;-80
2021/08/26 00:07:44;;;;;;;7.55;5.40;;;;;;;15.47;78.79;100880.06;680253;29;1111;-82
2021/08/26 00:08:04;;;;;;;7.90;5.23;;;;;;;15.56;79.06;100886.91;678469;29;1425;-81
2021/08/26 00:08:24;;;;;;;7.70;5.47;;;;;;;15.59;79.21;100874.53;675596;29;1821;-82
2021/08/26 00:08:47;;;;;;;7.63;5.60;;;;;;;15.54;79.48;100876.41;675003;29;1765;-81
2021/08/26 00:09:07;;;;;;;8.52;5.60;;;;;;;15.57;80.01;100884.22;676982;29;2352;-81
2021/08/26 00:09:28;;;;;;;10.50;6.40;;;;;;;15.50;80.48;100875.59;678290;29;1911;-82
2021/08/26 00:09:49;;;;;;;8.43;6.13;;;;;;;15.51;79.09;100881.75;677790;29;4459;-81
2021/08/26 00:10:13;;;;;;;8.70;5.80;;;;;;;15.50;79.92;100874.72;677316;29;1283;-81
2021/08/26 00:10:34;;;;;;;9.32;5.78;;;;;;;15.52;79.28;100882.59;677302;29;1444;-82
2021/08/26 00:10:54;;;;;;;9.23;5.97;;;;;;;15.49;79.81;100879.16;678197;29;1218;-80
2021/08/26 00:11:19;;;;;;;8.40;5.82;;;;;;;15.60;78.26;100873.63;678364;29;1035;-82
2021/08/26 00:11:44;;;;;;;7.88;5.78;;;;;;;15.52;79.45;100883.47;681382;29;967;-81
2021/08/26 00:12:06;;;;;;;7.80;5.78;;;;;;;15.53;79.89;100879.91;680826;29;3745;-82
2021/08/26 00:12:26;;;;;;;7.88;5.60;;;;;;;15.59;79.50;100878.91;680778;29;1625;-81
2021/08/26 00:12:46;;;;;;;7.90;5.90;;;;;;;15.66;79.92;100868.22;678742;28;1191;-81
2021/08/26 00:13:07;;;;;;;7.15;5.63;;;;;;;15.59;80.01;100874.53;681987;28;4381;-81
2021/08/26 00:13:27;;;;;;;8.38;5.95;;;;;;;15.52;80.67;100880.84;682462;29;1895;-81
2021/08/26 00:13:50;;;;;;;8.20;5.90;;;;;;;15.48;80.55;100881.81;683004;28;982;-82
2021/08/26 00:14:12;;;;;;;8.82;6.13;;;;;;;15.41;79.77;100875.81;679886;28;1410;-82
2021/08/26 00:14:32;;;;;;;8.98;5.93;;;;;;;15.40;79.83;100875.84;679940;29;1197;-82
2021/08/26 00:14:53;;;;;;;9.43;6.18;;;;;;;15.41;80.83;100874.91;678119;29;1333;-81
2021/08/26 00:15:13;;;;;;;8.13;6.30;;;;;;;15.33;81.42;100878.59;677409;29;4363;-82
2021/08/26 00:15:34;;;;;;;7.30;5.70;;;;;;;15.36;81.27;100875.03;677257;29;1670;-81
2021/08/26 00:15:56;;;;;;;8.05;5.90;;;;;;;15.33;80.49;100878.59;676840;29;4404;-81
2021/08/26 00:16:21;;;;;;;8.27;5.90;;;;;;;15.28;81.16;100875.19;675161;29;1039;-81
2021/08/26 00:16:42;;;;;;;9.45;5.70;;;;;;;15.27;81.75;100872.56;678320;29;3150;-82
2021/08/26 00:17:02;;;;;;;8.10;5.50;;;;;;;15.34;80.79;100874.22;679017;29;993;-81
2021/08/26 00:17:23;;;;;;;7.60;5.97;;;;;;;15.22;81.60;100870.06;680829;29;1000;-82
2021/08/26 00:17:45;;;;;;;8.27;6.30;;;;;;;15.17;81.82;100874.53;681940;28;889;-81
2021/08/26 00:18:05;;;;;;;8.70;6.10;;;;;;;15.16;81.74;100875.47;684105;28;3863;-82
2021/08/26 00:18:26;;;;;;;8.38;6.05;;;;;;;15.23;81.57;100871.78;685349;28;1191;-81
2021/08/26 00:18:47;;;;;;;8.70;5.97;;;;;;;15.24;80.59;100870.03;684604;28;1521;-82
2021/08/26 00:19:09;;;;;;;8.27;5.85;;;;;;;15.24;80.40;100873.50;680372;28;6696;-81
2021/08/26 00:19:30;;;;;;;7.68;5.80;;;;;;;15.31;79.61;100868.97;677072;29;1670;-81
2021/08/26 00:19:53;;;;;;;7.68;5.78;;;;;;;15.32;79.29;100866.31;677710;29;1802;-82
2021/08/26 00:20:13;;;;;;;8.32;6.10;;;;;;;15.32;80.39;100871.56;673890;29;1682;-82
2021/08/26 00:20:33;;;;;;;8.52;6.03;;;;;;;15.25;81.30;100872.63;679628;29;1280;-81
2021/08/26 00:20:54;;;;;;;7.90;5.87;;;;;;;15.30;81.11;100870.75;678986;29;3385;-82
2021/08/26 00:21:14;;;;;;;7.97;6.00;;;;;;;15.43;80.87;100873.13;679295;29;3097;-82
2021/08/26 00:21:35;;;;;;;8.60;6.10;;;;;;;15.44;81.11;100864.34;680890;29;1539;-81
2021/08/26 00:21:55;;;;;;;7.93;5.80;;;;;;;15.42;79.47;100868.75;679422;29;4427;-81
2021/08/26 00:22:17;;;;;;;7.35;5.70;;;;;;;15.51;80.68;100855.41;680012;29;1460;-82
2021/08/26 00:22:37;;;;;;;8.88;6.00;;;;;;;15.47;80.61;100865.13;677952;29;1202;-81
2021/08/26 00:22:58;;;;;;;9.20;6.83;;;;;;;15.38;81.09;100861.81;679474;29;1517;-82
2021/08/26 00:23:21;;;;;;;9.68;7.22;;;;;;;15.33;80.95;100867.19;677063;29;1186;-81
2021/08/26 00:23:41;;;;;;;8.68;6.85;;;;;;;15.28;81.16;100869.06;674669;29;1329;-81
2021/08/26 00:24:02;;;;;;;8.90;6.70;;;;;;;15.32;81.26;100868.94;675679;29;3806;-81
2021/08/26 00:24:23;;;;;;;9.80;6.80;;;;;;;15.32;80.08;100868.94;677528;29;1318;-81
2021/08/26 00:24:43;;;;;;;10.10;6.75;;;;;;;15.28;81.53;100861.16;676898;29;1713;-81
2021/08/26 00:25:05;;;;;;;9.80;6.67;;;;;;;15.24;82.14;100859.47;677095;29;5995;-81
2021/08/26 00:25:25;;;;;;;9.77;6.88;;;;;;;15.23;81.60;100856.00;677469;29;2198;-81
2021/08/26 00:25:46;;;;;;;11.77;8.37;;;;;;;15.19;81.51;100854.31;675551;29;1761;-81
2021/08/26 00:26:06;;;;;;;10.57;7.90;;;;;;;15.18;81.73;100860.47;679443;29;1996;-81
2021/08/26 00:26:26;;;;;;;11.47;8.53;;;;;;;15.17;81.15;100865.78;677114;29;1468;-82
2021/08/26 00:26:47;;;;;;;10.88;8.10;;;;;;;15.21;81.38;100867.44;677195;29;1772;-83
2021/08/26 00:27:08;;;;;;;12.80;9.02;;;;;;;15.24;81.81;100855.06;677159;29;2442;-80
2021/08/26 00:27:28;;;;;;;10.30;8.33;;;;;;;15.30;80.54;100862.00;677410;29;1895;-82
2021/08/26 00:27:49;;;;;;;9.95;7.93;;;;;;;15.31;80.13;100858.44;678433;29;4549;-81
2021/08/26 00:28:10;;;;;;;10.57;7.97;;;;;;;15.33;79.71;100846.97;678936;29;1418;-82
2021/08/26 00:28:30;;;;;;;10.37;8.20;;;;;;;15.38;80.35;100860.06;680749;29;1532;-82
2021/08/26 00:28:51;;;;;;;9.73;7.95;;;;;;;15.41;79.93;100854.72;679357;29;1320;-80
2021/08/26 00:29:11;;;;;;;10.98;7.95;;;;;;;15.48;80.20;100845.78;677969;29;1506;-82
2021/08/26 00:29:32;;;;;;;12.30;8.90;;;;;;;15.54;80.74;100849.19;678849;29;1420;-81
2021/08/26 00:29:54;;;;;;;11.77;9.65;;;;;;;15.52;79.90;100850.97;678392;29;3424;-82
2021/08/26 00:30:15;;;;;;;12.95;9.80;;;;;;;15.42;80.26;100850.31;680975;29;1451;-81
2021/08/26 00:30:36;;;;;;;12.27;9.43;;;;;;;15.46;80.01;100858.09;679860;29;1382;-82
2021/08/26 00:30:56;;;;;;;12.48;9.43;;;;;;;15.40;81.07;100850.34;679676;28;4466;-81
2021/08/26 00:31:17;;;;;;;12.20;9.57;;;;;;;15.43;81.10;100847.66;681376;29;1396;-81
2021/08/26 00:31:37;;;;;;;11.93;9.52;;;;;;;15.41;81.12;100851.22;682498;29;1716;-81
2021/08/26 00:31:57;;;;;;;13.37;9.70;;;;;;;15.40;81.41;100846.88;685631;28;1211;-81
2021/08/26 00:32:18;;;;;;;11.73;9.30;;;;;;;15.42;80.87;100853.81;688212;28;1322;-81
2021/08/26 00:32:39;;;;;;;12.13;9.50;;;;;;;15.43;81.44;100842.38;685483;28;2458;-81
2021/08/26 00:32:59;;;;;;;11.30;9.73;;;;;;;15.36;81.62;100845.19;684987;28;2003;-81
2021/08/26 00:33:22;;;;;;;11.50;9.83;;;;;;;15.31;81.29;100846.16;682525;28;1148;-81
2021/08/26 00:33:42;;;;;;;11.15;9.32;;;;;;;15.23;81.37;100848.09;683553;28;1327;-82
2021/08/26 00:34:03;;;;;;;11.40;8.70;;;;;;;15.24;80.45;100846.31;679392;29;4384;-81
2021/08/26 00:34:23;;;;;;;12.25;9.52;;;;;;;15.20;81.70;100849.91;677881;29;1274;-81
2021/08/26 00:34:43;;;;;;;12.73;9.93;;;;;;;15.20;81.33;100842.00;680156;29;1111;-81
2021/08/26 00:35:04;;;;;;;12.07;9.60;;;;;;;15.16;82.20;100846.50;677944;29;1165;-81
2021/08/26 00:35:25;;;;;;;11.70;9.50;;;;;;;15.22;81.76;100840.22;680079;29;939;-81
2021/08/26 00:35:45;;;;;;;10.77;9.30;;;;;;;15.23;81.51;100842.81;679250;29;3364;-82
2021/08/26 00:36:06;;;;;;;11.10;9.47;;;;;;;15.35;81.88;100843.47;680116;29;1322;-82
2021/08/26 00:36:26;;;;;;;12.30;9.50;;;;;;;15.42;81.56;100837.16;680208;29;1396;-80
2021/08/26 00:36:47;;;;;;;11.98;9.55;;;;;;;15.37;81.39;100847.78;678944;29;1794;-81
2021/08/26 00:37:07;;;;;;;11.67;9.03;;;;;;;15.36;80.17;100843.41;679566;29;5826;-81
2021/08/26 00:37:27;;;;;;;10.85;9.10;;;;;;;15.38;80.91;100843.38;680200;28;1283;-81
2021/08/26 00:37:50;;;;;;;12.10;9.73;;;;;;;15.42;81.79;100839.78;683532;28;1658;-81
2021/08/26 00:38:11;;;;;;;11.73;9.93;;;;;;;15.29;82.10;100847.94;682120;28;1931;-82
2021/08/26 00:38:31;;;;;;;12.32;10.20;;;;;;;15.32;82.04;100847.03;680397;29;1135;-81
2021/08/26 00:38:52;;;;;;;13.07;10.83;;;;;;;15.22;82.46;100848.13;680444;28;3711;-82
2021/08/26 00:39:12;;;;;;;12.60;11.13;;;;;;;15.25;81.96;100845.41;679511;29;3507;-81
2021/08/26 00:39:32;;;;;;;13.03;11.23;;;;;;;15.19;82.61;100843.78;679761;29;1628;-81
2021/08/26 00:39:53;;;;;;;13.67;11.57;;;;;;;15.17;82.12;100848.19;679849;29;4526;-82
2021/08/26 00:40:14;;;;;;;13.45;11.45;;;;;;;15.24;82.04;100833.16;680119;29;1793;-80
2021/08/26 00:40:34;;;;;;;14.23;12.20;;;;;;;15.19;83.07;100842.91;680365;29;1126;-81
2021/08/26 00:40:59;;;;;;;14.47;12.47;;;;;;;15.19;81.45;100843.78;677517;29;1441;-82
2021/08/26 00:41:20;;;;;;;15.27;12.07;;;;;;;15.13;83.27;100838.63;674426;29;1171;-81
2021/08/26 00:41:42;;;;;;;15.20;12.60;;;;;;;15.09;83.34;100842.22;673657;29;3487;-81
2021/08/26 00:42:04;;;;;;;15.75;12.82;;;;;;;15.07;83.55;100834.38;674573;29;1299;-81
2021/08/26 00:42:24;;;;;;;14.57;12.25;;;;;;;15.10;83.41;100842.19;678140;29;1558;-81
2021/08/26 00:42:46;;;;;;;15.88;12.15;;;;;;;15.09;83.63;100843.13;675843;29;1580;-81
2021/08/26 00:43:06;;;;;;;14.47;11.63;;;;;;;15.11;82.00;100837.81;677248;29;4579;-81
2021/08/26 00:43:27;;;;;;;13.93;11.43;;;;;;;15.15;82.80;100836.84;676967;29;1779;-81
2021/08/26 00:43:49;;;;;;;13.60;11.85;;;;;;;15.15;82.16;100834.22;674820;29;1598;-81
2021/08/26 00:44:10;;;;;;;14.10;12.10;;;;;;;15.19;83.25;100841.16;675615;29;1209;-82
2021/08/26 00:44:30;;;;;;;14.43;12.17;;;;;;;15.20;82.56;100840.22;676927;29;2035;-81
2021/08/26 00:44:51;;;;;;;14.97;12.20;;;;;;;15.13;83.80;100843.91;678172;29;4536;-81
2021/08/26 00:45:11;;;;;;;15.32;12.65;;;;;;;15.14;83.78;100840.38;682157;28;1862;-82
2021/08/26 00:45:33;;;;;;;15.07;12.90;;;;;;;15.09;84.14;100844.84;682808;28;1660;-81
2021/08/26 00:45:54;;;;;;;15.43;12.70;;;;;;;15.09;83.31;100835.22;682324;28;4349;-82
2021/08/26 00:46:15;;;;;;;15.20;12.30;;;;;;;15.20;84.31;100829.69;682124;28;1323;-81
2021/08/26 00:46:37;;;;;;;15.20;12.98;;;;;;;15.15;84.29;100839.50;681544;29;1690;-81
2021/08/26 00:46:57;;;;;;;15.63;12.88;;;;;;;15.12;84.53;100842.19;679299;29;1593;-81
2021/08/26 00:47:24;;;;;;;14.73;12.63;;;;;;;15.09;84.72;100832.59;676331;29;1474;-81
2021/08/26 00:47:47;;;;;;;15.65;12.50;;;;;;;15.05;85.13;100844.06;676888;29;2316;-81
2021/08/26 00:48:08;;;;;;;15.70;13.40;;;;;;;14.98;85.43;100843.31;680798;29;1566;-81
2021/08/26 00:48:28;;;;;;;15.18;12.90;;;;;;;14.98;84.93;100840.69;679584;29;1437;-81
2021/08/26 00:48:49;;;;;;;15.10;12.47;;;;;;;14.99;85.18;100836.28;682202;29;4371;-82
2021/08/26 00:49:15;;;;;;;15.18;12.75;;;;;;;15.03;85.17;100835.31;679645;29;1395;-82
2021/08/26 00:49:36;;;;;;;16.92;14.05;;;;;;;15.00;84.89;100837.16;679897;29;1718;-81
2021/08/26 00:49:56;;;;;;;17.03;14.27;;;;;;;14.95;85.47;100830.25;677272;29;1141;-81
2021/08/26 00:50:17;;;;;;;16.63;14.45;;;;;;;14.93;85.26;100845.19;672442;29;1754;-81
2021/08/26 00:50:37;;;;;;;15.93;13.67;;;;;;;15.02;85.81;100832.72;674730;29;4347;-82
2021/08/26 00:50:58;;;;;;;16.55;13.73;;;;;;;15.11;84.50;100841.31;674224;29;1349;-81
2021/08/26 00:51:18;;;;;;;16.03;13.53;;;;;;;15.06;85.47;100837.03;674767;29;1772;-80
2021/08/26 00:51:39;;;;;;;17.30;14.48;;;;;;;15.03;84.49;100835.31;677342;29;1666;-81
2021/08/26 00:52:00;;;;;;;16.40;14.03;;;;;;;15.00;85.71;100832.75;677125;29;5328;-81
2021/08/26 00:52:22;;;;;;;16.40;14.40;;;;;;;14.96;84.94;100834.59;682725;28;1432;-81
2021/08/26 00:52:42;;;;;;;16.02;13.98;;;;;;;15.03;83.54;100832.69;684635;28;1204;-81
2021/08/26 00:53:03;;;;;;;16.15;14.45;;;;;;;15.00;85.76;100832.75;681853;29;1699;-82
2021/08/26 00:53:24;;;;;;;17.30;15.20;;;;;;;14.95;85.81;100839.88;681789;28;1895;-81
2021/08/26 00:53:45;;;;;;;17.52;13.75;;;;;;;14.96;84.23;100829.31;673627;29;3688;-82
2021/08/26 00:54:07;;;;;;;16.73;14.03;;;;;;;14.97;85.96;100835.47;673759;29;1711;-81
2021/08/26 00:54:27;;;;;;;16.33;14.23;;;;;;;14.91;86.40;100825.94;674483;29;1881;-81
2021/08/26 00:54:48;;;;;;;18.35;15.13;;;;;;;14.84;87.21;100837.44;679500;29;4383;-81
2021/08/26 00:55:09;;;;;;;19.05;15.40;;;;;;;14.77;87.82;100828.84;682887;29;1085;-80
2021/08/26 00:55:30;;;;;;;17.00;14.48;;;;;;;14.79;86.42;100828.81;679890;29;1066;-81
2021/08/26 00:55:51;;;;;;;16.05;13.55;;;;;;;14.83;86.67;100822.59;677698;29;1262;-82
2021/08/26 00:56:13;;;;;;;17.48;14.63;;;;;;;14.81;87.74;100829.63;677696;29;1173;-81
2021/08/26 00:56:34;;;;;;;17.33;14.90;;;;;;;14.75;88.04;100824.50;677595;29;4184;-81
2021/08/26 00:56:55;;;;;;;16.52;14.57;;;;;;;14.72;88.07;100833.31;679658;29;1227;-81
2021/08/26 00:57:15;;;;;;;16.77;14.88;;;;;;;14.68;88.64;100833.41;679177;29;1429;-81
2021/08/26 00:57:36;;;;;;;17.80;15.27;;;;;;;14.64;88.71;100824.69;680900;29;1373;-81
2021/08/26 00:57:56;;;;;;;17.20;14.90;;;;;;;14.67;88.21;100836.94;680353;28;4438;-81
2021/08/26 00:58:18;;;;;;;16.45;14.57;;;;;;;14.63;88.56;100837.00;682473;28;1520;-81
2021/08/26 00:58:42;;;;;;;17.85;14.80;;;;;;;14.67;88.41;100829.03;684466;28;1513;-81
2021/08/26 00:59:05;;;;;;;18.10;14.98;;;;;;;14.67;88.84;100829.91;675472;29;1401;-81
2021/08/26 00:59:26;;;;;;;18.42;14.68;;;;;;;14.74;88.57;100828.00;676307;29;1017;-81
2021/08/26 00:59:47;;;;;;;18.65;14.13;;;;;;;14.78;86.43;100827.06;679519;29;3536;-80
2021/08/26 01:00:11;;;;;;;17.50;14.68;;;;;;;14.71;88.70;100830.72;678748;29;1518;-81
2021/08/26 01:00:32;;;;;;;17.05;14.88;;;;;;;14.69;89.00;100825.50;681456;29;1377;-81
2021/08/26 01:01:00;;;;;;;16.77;14.18;;;;;;;14.72;88.44;100819.31;683712;28;4498;-81
2021/08/26 01:01:30;;;;;;;17.13;14.57;;;;;;;14.69;89.19;100827.22;685696;28;1534;-80
2021/08/26 01:02:16;;;;;;;17.88;14.50;;;;;;;14.69;89.44;100827.22;682960;29;1632;-81
2021/08/26 01:03:12;;;;;;;17.15;14.43;;;;;;;14.81;88.35;100827.00;680737;29;1443;-81
2021/08/26 01:03:42;;;;;;;19.67;15.07;;;;;;;14.73;89.13;100823.66;679681;29;1432;-81
2021/08/26 01:04:42;;;;;;;17.50;14.57;;;;;;;14.84;86.45;100821.66;679337;29;4354;-81
2021/08/26 01:05:13;;;;;;;17.23;14.75;;;;;;;14.81;89.12;100824.38;679831;29;1201;-80
2021/08/26 01:05:41;;;;;;;18.40;15.25;;;;;;;14.73;89.73;100834.16;682539;28;3487;-81
2021/08/26 01:06:11;;;;;;;18.88;15.57;;;;;;;14.73;89.06;100821.00;675755;29;1363;-81
2021/08/26 01:06:46;;;;;;;17.98;15.45;;;;;;;14.68;90.03;100822.88;680096;29;936;-80
2021/08/26 01:07:16;;;;;;;19.48;15.68;;;;;;;14.61;90.87;100822.09;682130;28;4346;-80
2021/08/26 01:07:48;;;;;;;18.92;15.93;;;;;;;14.60;89.88;100820.34;678653;29;1544;-81
2021/08/26 01:08:38;;;;;;;19.00;14.77;;;;;;;14.62;88.05;100819.47;682366;28;1303;-80
2021/08/26 01:09:10;;;;;;;18.48;14.93;;;;;;;14.70;89.31;100816.66;679987;29;1480;-80
2021/08/26 01:09:43;;;;;;;17.75;15.00;;;;;;;14.64;88.17;100822.91;681320;29;1663;-80
2021/08/26 01:10:06;;;;;;;18.05;14.88;;;;;;;14.59;90.35;100821.25;678511;29;4471;-80
2021/08/26 01:10:29;;;;;;;17.13;14.52;;;;;;;14.66;88.01;100816.78;679592;29;1225;-79
2021/08/26 01:10:58;;;;;;;15.65;13.98;;;;;;;14.74;88.13;100809.59;679657;28;1456;-80
2021/08/26 01:11:22;;;;;;;17.58;14.30;;;;;;;14.73;89.46;100816.63;680089;29;1603;-80
2021/08/26 01:11:42;;;;;;;19.08;14.98;;;;;;;14.71;89.92;100825.44;681876;29;1443;-79
2021/08/26 01:12:03;;;;;;;18.70;15.07;;;;;;;14.69;90.15;100809.69;678670;29;3396;-79
2021/08/26 01:12:25;;;;;;;17.13;14.90;;;;;;;14.69;89.43;100811.44;679371;29;1853;-80
2021/08/26 01:12:47;;;;;;;18.83;15.45;;;;;;;14.76;90.27;100818.31;677413;29;1311;-79
2021/08/26 01:13:09;;;;;;;18.20;15.05;;;;;;;14.82;88.95;100808.53;673785;29;4919;-79
2021/08/26 01:13:35;;;;;;;16.67;14.30;;;;;;;14.89;89.58;100809.28;674322;29;1644;-79
2021/08/26 01:13:56;;;;;;;17.00;14.90;;;;;;;14.85;89.92;100806.75;673865;29;1306;-79
2021/08/26 01:14:18;;;;;;;17.65;15.05;;;;;;;14.75;90.31;100806.94;677053;29;1299;-79
2021/08/26 01:14:39;;;;;;;19.13;15.82;;;;;;;14.72;89.91;100811.41;676882;29;1214;-79
2021/08/26 01:15:00;;;;;;;18.05;15.35;;;;;;;14.69;90.78;100814.06;673932;29;1575;-79
2021/08/26 01:15:21;;;;;;;18.10;15.07;;;;;;;14.67;90.52;100810.63;674258;29;2425;-79
2021/08/26 01:16:09;;;;;;;18.10;15.52;;;;;;;14.62;88.94;100802.75;675893;29;4332;-79
2021/08/26 01:16:29;;;;;;;17.48;14.32;;;;;;;14.69;88.14;100803.56;676417;29;5038;-79
2021/08/26 01:16:49;;;;;;;18.05;14.32;;;;;;;14.88;90.18;100804.91;676850;29;1262;-79
2021/08/26 01:17:17;;;;;;;18.43;15.17;;;;;;;14.87;90.23;100811.09;673861;29;1308;-79
2021/08/26 01:17:37;;;;;;;18.13;14.82;;;;;;;14.82;90.53;100807.69;675966;29;1447;-79
2021/08/26 01:17:58;;;;;;;17.45;14.98;;;;;;;14.78;90.61;100800.75;673462;29;1923;-78
2021/08/26 01:18:19;;;;;;;19.75;15.43;;;;;;;14.71;91.23;100809.66;673643;29;2158;-79
2021/08/26 01:18:45;;;;;;;19.93;15.77;;;;;;;14.65;91.58;100805.38;677376;29;1435;-78
2021/08/26 01:19:05;;;;;;;19.77;15.75;;;;;;;14.60;91.79;100808.06;677436;29;4340;-79
2021/08/26 01:19:25;;;;;;;19.30;15.57;;;;;;;14.54;92.15;100802.03;679139;29;1695;-78
2021/08/26 01:19:47;;;;;;;19.07;15.60;;;;;;;14.52;92.18;100804.72;677187;29;1279;-78
2021/08/26 01:20:08;;;;;;;18.52;15.35;;;;;;;14.49;92.33;100804.78;676283;29;1417;-79
2021/08/26 01:20:29;;;;;;;18.83;15.43;;;;;;;14.47;92.48;100802.16;677279;29;1297;-79
2021/08/26 01:20:49;;;;;;;17.20;14.68;;;;;;;14.51;90.18;100810.00;679647;29;1446;-78
2021/08/26 01:21:12;;;;;;;15.47;13.83;;;;;;;14.55;90.42;100796.78;678791;29;1148;-78
2021/08/26 01:21:33;;;;;;;17.33;15.23;;;;;;;14.61;91.18;100806.31;677549;29;1579;-78
2021/08/26 01:21:53;;;;;;;17.33;15.00;;;;;;;14.61;90.84;100801.06;679382;28;4352;-78
2021/08/26 01:22:16;;;;;;;17.00;14.52;;;;;;;14.58;91.48;100795.81;678140;29;3145;-78
2021/08/26 01:22:37;;;;;;;16.00;14.05;;;;;;;14.58;90.16;100799.34;681386;28;3263;-79
2021/08/26 01:22:57;;;;;;;15.05;13.15;;;;;;;14.60;90.82;100802.78;684066;28;1616;-79
2021/08/26 01:23:17;;;;;;;17.63;14.35;;;;;;;14.59;90.61;100793.19;678125;29;1343;-79
2021/08/26 01:23:42;;;;;;;17.63;14.23;;;;;;;14.63;89.78;100797.53;673787;29;1607;-78
2021/08/26 01:24:07;;;;;;;16.63;14.30;;;;;;;14.78;90.90;100795.47;673996;29;1714;-78
2021/08/26 01:24:28;;;;;;;17.73;13.90;;;;;;;14.85;91.07;100796.22;671675;29;1675;-78
2021/08/26 01:24:56;;;;;;;17.17;13.73;;;;;;;14.87;90.26;100795.31;673956;29;4924;-78
2021/08/26 01:25:20;;;;;;;15.40;13.10;;;;;;;14.91;90.68;100791.72;676493;29;1058;-78
2021/08/26 01:25:46;;;;;;;16.02;13.40;;;;;;;14.86;90.79;100787.44;678768;29;1357;-79
2021/08/26 01:26:08;;;;;;;15.85;13.30;;;;;;;14.82;91.08;100786.63;681136;28;2798;-78
2021/08/26 01:26:41;;;;;;;15.93;13.60;;;;;;;14.81;91.59;100787.53;682027;28;1209;-79
2021/08/26 01:27:04;;;;;;;15.50;12.55;;;;;;;14.87;91.22;100789.16;681366;29;1389;-79
2021/08/26 01:27:37;;;;;;;14.38;12.10;;;;;;;14.89;90.05;100785.59;679138;29;1481;-78
2021/08/26 01:28:03;;;;;;;15.18;12.23;;;;;;;14.97;90.34;100791.56;679184;29;4355;-78
2021/08/26 01:28:24;;;;;;;14.98;11.88;;;;;;;15.04;89.99;100791.47;681811;29;1554;-78
2021/08/26 01:28:49;;;;;;;14.40;11.87;;;;;;;14.92;90.63;100789.94;678759;29;1708;-78
2021/08/26 01:29:11;;;;;;;14.38;11.80;;;;;;;14.79;91.03;100786.69;679176;29;1039;-78
2021/08/26 01:29:32;;;;;;;15.07;12.18;;;;;;;14.74;91.70;100793.81;678649;29;3700;-78
2021/08/26 01:29:52;;;;;;;13.82;11.55;;;;;;;14.72;90.68;100787.72;678315;29;1571;-78
2021/08/26 01:30:18;;;;;;;12.80;10.73;;;;;;;14.68;91.25;100786.91;678355;29;1578;-78
2021/08/26 01:30:42;;;;;;;13.98;11.38;;;;;;;14.86;91.26;100798.81;681233;28;1367;-79
2021/08/26 01:31:03;;;;;;;15.10;11.68;;;;;;;15.00;90.81;100785.38;677763;29;4381;-78
2021/08/26 01:31:24;;;;;;;14.63;11.98;;;;;;;14.91;91.02;100789.09;680495;29;1292;-78
2021/08/26 01:31:44;;;;;;;15.93;12.13;;;;;;;14.84;91.01;100790.09;678682;29;1237;-78
2021/08/26 01:32:05;;;;;;;15.93;11.45;;;;;;;14.91;91.14;100791.72;678252;29;1655;-78
2021/08/26 01:32:26;;;;;;;14.63;10.88;;;;;;;14.87;89.64;100795.31;677844;29;1533;-78
2021/08/26 01:32:52;;;;;;;13.05;11.02;;;;;;;14.86;89.74;100788.31;678902;29;2426;-79
2021/08/26 01:33:12;;;;;;;12.65;11.13;;;;;;;14.83;90.47;100793.63;681391;29;2512;-79
2021/08/26 01:33:34;;;;;;;12.85;11.15;;;;;;;14.75;91.03;100788.50;682561;28;1455;-79
2021/08/26 01:33:55;;;;;;;13.20;11.48;;;;;;;14.68;91.43;100792.16;681760;28;4325;-79
2021/08/26 01:34:19;;;;;;;14.55;11.30;;;;;;;14.67;90.78;100786.94;683070;28;1913;-78
2021/08/26 01:34:39;;;;;;;13.85;11.27;;;;;;;14.64;91.82;100786.09;682181;29;1435;-78
2021/08/26 01:35:03;;;;;;;13.47;11.40;;;;;;;14.58;92.33;100791.44;677928;29;1339;-79
2021/08/26 01:35:26;;;;;;;13.32;11.10;;;;;;;14.57;91.80;100791.50;674825;29;1429;-79
2021/08/26 01:35:48;;;;;;;12.73;10.20;;;;;;;14.59;91.02;100785.31;679442;29;1133;-79
2021/08/26 01:36:09;;;;;;;12.18;10.25;;;;;;;14.58;91.66;100793.19;678984;29;1430;-78
2021/08/26 01:36:32;;;;;;;12.30;10.32;;;;;;;14.59;90.80;100784.41;681357;28;3601;-79
2021/08/26 01:36:54;;;;;;;12.38;10.15;;;;;;;14.60;89.78;100784.38;681545;28;4405;-78
2021/08/26 01:37:19;;;;;;;11.65;9.80;;;;;;;14.64;90.97;100782.59;681885;28;2015;-78
2021/08/26 01:37:40;;;;;;;13.30;10.70;;;;;;;14.58;92.52;100788.81;679194;29;1634;-78
2021/08/26 01:38:01;;;;;;;13.43;10.60;;;;;;;14.64;90.16;100786.09;678271;29;1920;-79
2021/08/26 01:38:25;;;;;;;11.57;9.43;;;;;;;14.66;89.43;100778.16;679712;29;1015;-79
2021/08/26 01:38:50;;;;;;;12.95;10.52;;;;;;;14.64;91.92;100783.47;680244;28;1285;-79
2021/08/26 01:39:13;;;;;;;13.43;10.70;;;;;;;14.66;91.66;100777.31;684128;28;3150;-78
2021/08/26 01:39:44;;;;;;;13.55;10.65;;;;;;;14.67;91.96;100777.28;686123;28;1763;-79
2021/08/26 01:40:05;;;;;;;12.57;10.23;;;;;;;14.87;91.81;100779.50;685455;28;4347;-79
2021/08/26 01:40:37;;;;;;;12.63;10.68;;;;;;;14.85;91.83;100775.19;686407;28;1396;-79
2021/08/26 01:40:57;;;;;;;11.95;9.82;;;;;;;14.82;89.62;100782.22;686980;28;1637;-79
2021/08/26 01:41:19;;;;;;;12.17;9.43;;;;;;;15.02;91.21;100770.41;687567;28;1137;-79
2021/08/26 01:41:49;;;;;;;11.70;9.63;;;;;;;14.99;90.66;100773.09;686271;28;1353;-78
2021/08/26 01:42:10;;;;;;;12.52;9.45;;;;;;;14.85;91.45;100776.03;686372;28;1265;-78
2021/08/26 01:42:30;;;;;;;11.80;9.63;;;;;;;14.81;90.49;100777.00;685150;28;1153;-79
2021/08/26 01:42:50;;;;;;;10.73;9.17;;;;;;;14.78;91.71;100780.56;683309;28;4383;-78
2021/08/26 01:43:12;;;;;;;12.23;9.97;;;;;;;14.74;92.28;100778.03;678765;29;1203;-79
2021/08/26 01:43:34;;;;;;;12.32;9.68;;;;;;;14.81;92.27;100774.38;677097;29;3828;-79
2021/08/26 01:43:54;;;;;;;11.70;9.85;;;;;;;14.76;92.27;100776.22;681390;29;1597;-78
2021/08/26 01:44:17;;;;;;;11.57;9.70;;;;;;;14.69;92.43;100769.34;681753;28;1930;-78
2021/08/26 01:44:37;;;;;;;12.13;9.85;;;;;;;14.73;91.17;100776.28;681712;28;1433;-79
2021/08/26 01:44:58;;;;;;;12.10;9.85;;;;;;;14.67;91.60;100776.41;680743;29;1362;-81
2021/08/26 01:45:18;;;;;;;11.77;9.60;;;;;;;14.75;91.95;100777.13;680166;29;1206;-79
2021/08/26 01:45:39;;;;;;;12.07;10.03;;;;;;;14.66;92.26;100770.28;676992;29;1769;-79
2021/08/26 01:46:00;;;;;;;11.35;9.85;;;;;;;14.63;91.70;100771.22;678909;29;4337;-79
2021/08/26 01:46:20;;;;;;;11.10;9.90;;;;;;;14.68;90.57;100772.91;679439;29;1284;-79
2021/08/26 01:46:41;;;;;;;10.88;9.15;;;;;;;14.68;90.02;100772.91;679437;29;1422;-79
2021/08/26 01:47:07;;;;;;;10.40;8.67;;;;;;;14.70;90.59;100771.09;681320;29;3622;-79
2021/08/26 01:47:27;;;;;;;11.60;9.63;;;;;;;14.72;91.22;100774.56;680367;29;1656;-79
2021/08/26 01:47:48;;;;;;;11.77;9.63;;;;;;;14.69;91.87;100771.97;681553;29;1595;-79
2021/08/26 01:48:08;;;;;;;12.10;10.07;;;;;;;14.64;92.56;100772.94;678734;29;1454;-79
2021/08/26 01:48:29;;;;;;;11.90;9.83;;;;;;;14.61;92.56;100767.72;674415;29;1279;-79
2021/08/26 01:48:49;;;;;;;11.80;10.10;;;;;;;14.60;91.74;100768.59;678806;29;4443;-79
2021/08/26 01:49:09;;;;;;;11.88;9.82;;;;;;;14.61;91.92;100762.44;677535;29;1342;-79
2021/08/26 01:49:30;;;;;;;12.40;10.33;;;;;;;14.58;92.72;100762.50;676371;29;1562;-79
2021/08/26 01:49:52;;;;;;;12.32;10.32;;;;;;;14.61;91.76;100766.84;679551;29;1259;-79
2021/08/26 01:50:13;;;;;;;11.15;9.40;;;;;;;14.62;92.47;100772.13;683280;28;1449;-79
2021/08/26 01:50:33;;;;;;;11.60;9.65;;;;;;;14.57;93.17;100765.19;679393;29;1226;-79